Observations for CAMBRIDGE, United Kingdom (EGSC)

EGSC 211750Z 17014KT 9000 RA BKN006 02/02 Q1007 
EGSC 211720Z 17014KT 9000 RA BKN004 BKN007 02/02 Q1007  
EGSC 211650Z 16015KT 9000 RA SCT004 BKN007 02/01 Q1008  
EGSC 211620Z 15015KT 9000 RA BKN004 02/01 Q1008 
EGSC 211550Z 15014G24KT 9000 -RA BKN005 BKN023 02/01 Q1009 R23/690335 R05/690335
EGSC 211520Z 15014KT 9000 -RA BKN006 01/01 Q1009 R23/690335 R05/690335  
EGSC 211450Z 15013KT 9000 -RA BKN006 01/00 Q1010 R23/690335 R05/690335  
EGSC 211420Z 15011KT 9000 -RA BKN008 01/00 Q1010 R23/690335 R05/690335  
EGSC 211350Z 16011KT 4500 -SN BR SCT003 01/00 Q1011 R23/690429 R05/690429   
EGSC 211320Z 15007KT 2400 -SN BR BKN003 00/M00 Q1012
EGSC 211250Z 16008KT 2400 -SN BR BKN003 00/M00 Q1013
EGSC 211220Z 16006KT 2400 -SN BR BKN003 00/M00 Q1013
EGSC 211150Z 16006KT 2400 -SN BR BKN004 00/M00 Q1014
EGSC 211120Z 16007KT 3000 -SN BR BKN003 01/00 Q1014 
EGSC 211050Z 18007KT 3000 -SNRA BR SCT002 01/00 Q1015   
EGSC 211020Z 19008KT 3000 -SN BR SCT002 01/00 Q1015 
EGSC 210950Z 16005KT 4000 BR SCT002 00/M00 Q1015
EGSC 210920Z 19005KT 3000 BR BKN002 00/M00 Q1015
EGSC 210850Z 21006KT 3000 BR BKN003 00/M00 Q1015
EGSC 210820Z 23005KT 3800 BR SCT003 00/M00 Q1015
EGSC 210750Z 24005KT 3800 BR BKN003 00/M00 Q1015
EGSC 210720Z 24005KT 4500 BR BKN003 00/M00 Q1015
EGSC 201750Z 35004KT 9000 BKN007 02/01 Q1003
EGSC 201720Z 02006KT 9000 BKN005 02/02 Q1002